Terminal Aerodrome Forecast
Issued by NWS Grand Forks, ND

Home | Current Version | Previous Version | Text Only | Print | Product List | Glossary Off
Versions: 1 2 3 4 5 6 7 8 9 10 11 12 13 14 15 16 17

000
FTUS43 KFGF 271915 AAA
TAFGFK
TAF AMD
KGFK 271915Z 2719/2818 15012KT P6SM SCT035
     FM272100 15012G17KT P6SM FEW040
     FM280200 13014KT P6SM SCT120
     FM281100 15014G18KT P6SM -TSRA BKN060CB
     FM281500 19016G25KT P6SM BKN080=

USA.gov is the U.S. government's official web portal to all federal, state and local government web resources and services.